createdAt,value
2022-10-09T00:00:46.626Z,14.70
2022-10-09T00:03:14.327Z,14.70
2022-10-09T00:05:41.742Z,14.70
2022-10-09T00:08:08.555Z,14.60
2022-10-09T00:10:40.276Z,14.60
2022-10-09T00:13:07.026Z,14.60
2022-10-09T00:15:39.040Z,14.60
2022-10-09T00:18:06.597Z,14.60
2022-10-09T00:20:39.652Z,14.50
2022-10-09T00:23:07.094Z,14.50
2022-10-09T00:25:34.584Z,14.50
2022-10-09T00:28:01.560Z,14.50
2022-10-09T00:30:28.413Z,14.40
2022-10-09T00:32:55.658Z,14.50
2022-10-09T00:35:23.104Z,14.40
2022-10-09T00:37:49.866Z,14.40
2022-10-09T00:40:16.967Z,14.30
2022-10-09T00:42:45.771Z,14.30
2022-10-09T00:45:20.911Z,14.30
2022-10-09T00:47:50.802Z,14.30
2022-10-09T00:50:39.991Z,14.20
2022-10-09T00:53:07.075Z,14.20
2022-10-09T00:55:35.078Z,14.10
2022-10-09T00:58:02.741Z,14.10
2022-10-09T01:00:29.714Z,14.10
2022-10-09T01:02:56.636Z,14.10
2022-10-09T01:05:29.655Z,14.00
2022-10-09T01:07:59.018Z,14.00
2022-10-09T01:10:59.457Z,14.00
2022-10-09T01:13:32.823Z,13.90
2022-10-09T01:16:04.563Z,13.90
2022-10-09T01:18:45.582Z,13.80
2022-10-09T01:21:20.138Z,13.80
2022-10-09T01:24:25.900Z,13.70
2022-10-09T01:27:07.419Z,13.80
2022-10-09T01:29:36.950Z,13.70
2022-10-09T01:32:04.851Z,13.70
2022-10-09T01:34:32.511Z,13.60
2022-10-09T01:36:59.444Z,13.60
2022-10-09T01:39:26.990Z,13.60
2022-10-09T01:41:53.871Z,13.60
2022-10-09T01:44:27.655Z,13.60
2022-10-09T01:46:54.277Z,13.50
2022-10-09T01:49:45.810Z,13.50
2022-10-09T01:52:27.066Z,13.50
2022-10-09T01:55:32.736Z,13.50
2022-10-09T01:58:15.160Z,13.40
2022-10-09T02:00:45.766Z,13.40
2022-10-09T02:03:13.943Z,13.30
2022-10-09T02:05:41.570Z,13.30
2022-10-09T02:08:09.666Z,13.30
2022-10-09T02:10:37.748Z,13.20
2022-10-09T02:13:05.683Z,13.20
2022-10-09T02:15:39.030Z,13.20
2022-10-09T02:18:10.564Z,13.20
2022-10-09T02:20:40.166Z,13.20
2022-10-09T02:23:08.060Z,13.10
2022-10-09T02:25:34.762Z,13.10
2022-10-09T02:28:01.864Z,13.00
2022-10-09T02:30:34.936Z,13.00
2022-10-09T02:33:01.560Z,13.00
2022-10-09T02:35:28.192Z,13.00
2022-10-09T02:37:54.771Z,12.90
2022-10-09T02:40:21.389Z,12.90
2022-10-09T02:42:48.203Z,12.90
2022-10-09T02:45:15.047Z,12.90
2022-10-09T02:47:41.621Z,12.90
2022-10-09T02:50:08.815Z,12.90
2022-10-09T02:52:35.394Z,12.80
2022-10-09T02:55:01.991Z,12.80
2022-10-09T02:57:28.616Z,12.70
2022-10-09T02:59:55.241Z,12.70
2022-10-09T03:02:22.013Z,12.70
2022-10-09T03:04:48.674Z,12.70
2022-10-09T03:07:15.256Z,12.60
2022-10-09T03:09:41.995Z,12.70
2022-10-09T03:12:08.620Z,12.60
2022-10-09T03:14:35.261Z,12.60
2022-10-09T03:17:01.842Z,12.50
2022-10-09T03:19:28.439Z,12.50
2022-10-09T03:21:55.044Z,12.50
2022-10-09T03:24:22.704Z,12.50
2022-10-09T03:26:49.394Z,12.50
2022-10-09T03:29:16.005Z,12.50
2022-10-09T03:31:57.886Z,12.40
2022-10-09T03:34:24.584Z,12.40
2022-10-09T03:36:51.239Z,12.50
2022-10-09T03:39:17.861Z,12.40
2022-10-09T03:41:44.502Z,12.40
2022-10-09T03:44:11.098Z,12.40
2022-10-09T03:46:37.805Z,12.30
2022-10-09T03:49:04.437Z,12.30
2022-10-09T03:51:31.070Z,12.30
2022-10-09T03:53:58.316Z,12.30
2022-10-09T03:56:25.014Z,12.50
2022-10-09T03:58:51.650Z,12.30
2022-10-09T04:01:18.443Z,12.30
2022-10-09T04:03:45.090Z,12.20
2022-10-09T04:06:11.739Z,12.30
2022-10-09T04:08:38.347Z,12.20
2022-10-09T04:11:05.166Z,12.20
2022-10-09T04:13:31.770Z,12.20
2022-10-09T04:15:58.450Z,12.10
2022-10-09T04:18:25.181Z,12.10
2022-10-09T04:20:53.580Z,12.10
2022-10-09T04:23:21.507Z,12.00
2022-10-09T04:25:48.126Z,12.00
2022-10-09T04:28:14.808Z,12.00
2022-10-09T04:30:41.530Z,12.00
2022-10-09T04:33:12.762Z,11.90
2022-10-09T04:35:46.945Z,12.00
2022-10-09T04:38:13.595Z,11.90
2022-10-09T04:40:41.066Z,11.90
2022-10-09T04:43:07.697Z,11.90
2022-10-09T04:45:34.427Z,11.80
2022-10-09T04:48:01.046Z,11.80
2022-10-09T04:50:27.657Z,11.60
2022-10-09T04:52:54.256Z,11.80
2022-10-09T04:55:20.868Z,11.80
2022-10-09T04:57:47.491Z,11.70
2022-10-09T05:00:14.447Z,11.70
2022-10-09T05:02:41.068Z,11.70
2022-10-09T05:05:08.163Z,11.70
2022-10-09T05:07:34.754Z,11.70
2022-10-09T05:10:01.413Z,11.60
2022-10-09T05:12:28.016Z,11.60
2022-10-09T05:14:54.628Z,11.60
2022-10-09T05:17:23.490Z,11.50
2022-10-09T05:19:50.389Z,11.60
2022-10-09T05:22:17.013Z,11.50
2022-10-09T05:24:43.653Z,11.40
2022-10-09T05:27:10.266Z,13.00
2022-10-09T05:29:36.873Z,11.50
2022-10-09T05:32:03.790Z,11.50
2022-10-09T05:34:30.536Z,11.40
2022-10-09T05:36:57.150Z,11.40
2022-10-09T05:39:23.758Z,11.40
2022-10-09T05:41:50.372Z,11.40
2022-10-09T05:44:17.044Z,11.40
2022-10-09T05:46:43.714Z,11.30
2022-10-09T05:49:12.080Z,11.40
2022-10-09T05:51:42.693Z,11.30
2022-10-09T05:54:13.771Z,11.30
2022-10-09T05:56:41.185Z,11.30
2022-10-09T05:59:09.824Z,11.30
2022-10-09T06:01:39.620Z,11.30
2022-10-09T06:04:09.842Z,11.30
2022-10-09T06:06:38.563Z,11.20
2022-10-09T06:09:06.350Z,11.20
2022-10-09T06:11:35.441Z,11.20
2022-10-09T06:14:05.500Z,11.20
2022-10-09T06:16:34.893Z,11.20
2022-10-09T06:19:02.318Z,11.20
2022-10-09T06:21:29.170Z,11.10
2022-10-09T06:23:58.333Z,11.10
2022-10-09T06:26:26.152Z,11.10
2022-10-09T06:28:52.880Z,11.00
2022-10-09T06:31:25.015Z,11.10
2022-10-09T06:33:53.024Z,11.10
2022-10-09T06:36:25.160Z,11.10
2022-10-09T06:38:52.696Z,11.10
2022-10-09T06:41:21.663Z,11.10
2022-10-09T06:43:50.643Z,11.00
2022-10-09T06:46:17.538Z,11.00
2022-10-09T06:48:44.188Z,10.90
2022-10-09T06:51:16.420Z,10.90
2022-10-09T06:53:48.384Z,10.90
2022-10-09T06:56:16.350Z,10.90
2022-10-09T06:58:43.389Z,10.80
2022-10-09T07:01:19.157Z,10.80
2022-10-09T07:03:48.156Z,10.80
2022-10-09T07:06:20.494Z,10.80
2022-10-09T07:08:52.972Z,10.90
2022-10-09T07:11:22.617Z,10.80
2022-10-09T07:13:51.251Z,10.80
2022-10-09T07:16:23.186Z,10.80
2022-10-09T07:18:49.963Z,10.80
2022-10-09T07:21:17.169Z,10.80
2022-10-09T07:23:44.163Z,10.90
2022-10-09T07:26:14.050Z,10.90
2022-10-09T07:28:41.729Z,10.90
2022-10-09T07:31:08.722Z,10.90
2022-10-09T07:33:35.595Z,10.90
2022-10-09T07:36:03.557Z,11.00
2022-10-09T07:38:30.320Z,11.00
2022-10-09T07:41:01.963Z,11.00
2022-10-09T07:43:28.595Z,11.00
2022-10-09T07:45:59.503Z,11.00
2022-10-09T07:48:26.313Z,11.00
2022-10-09T07:50:53.220Z,11.00
2022-10-09T07:53:20.034Z,11.00
2022-10-09T07:55:47.790Z,11.00
2022-10-09T07:58:15.463Z,11.10
2022-10-09T08:00:42.898Z,11.10
2022-10-09T08:03:09.896Z,11.20
2022-10-09T08:05:36.571Z,11.20
2022-10-09T08:08:03.292Z,11.20
2022-10-09T08:10:31.133Z,11.30
2022-10-09T08:12:57.750Z,11.30
2022-10-09T08:15:24.497Z,11.40
2022-10-09T08:17:54.834Z,11.40
2022-10-09T08:20:21.601Z,11.50
2022-10-09T08:22:48.477Z,11.50
2022-10-09T08:25:15.302Z,11.60
2022-10-09T08:27:41.919Z,11.70
2022-10-09T08:30:09.009Z,11.70
2022-10-09T08:32:35.605Z,11.80
2022-10-09T08:35:02.186Z,11.80
2022-10-09T08:37:28.879Z,11.80
2022-10-09T08:39:55.470Z,11.90
2022-10-09T08:42:44.370Z,12.00
2022-10-09T08:45:16.123Z,12.10
2022-10-09T08:47:51.089Z,12.10
2022-10-09T08:50:25.055Z,12.20
2022-10-09T08:52:57.182Z,12.30
2022-10-09T08:55:28.676Z,12.40
2022-10-09T08:57:57.512Z,12.50
2022-10-09T09:00:27.658Z,12.60
2022-10-09T09:03:12.951Z,12.80
2022-10-09T09:05:48.802Z,12.90
2022-10-09T09:08:28.487Z,13.00
2022-10-09T09:11:22.576Z,13.10
2022-10-09T09:14:27.079Z,13.20
2022-10-09T09:16:59.610Z,13.40
2022-10-09T09:19:35.272Z,13.50
2022-10-09T09:22:02.212Z,13.50
2022-10-09T09:24:42.636Z,13.60
2022-10-09T09:27:19.260Z,13.70
2022-10-09T09:30:17.695Z,13.90
2022-10-09T09:32:59.580Z,13.90
2022-10-09T09:35:56.430Z,14.00
2022-10-09T09:38:23.050Z,14.20
2022-10-09T09:40:50.733Z,14.30
2022-10-09T09:43:20.161Z,14.40
2022-10-09T09:45:47.557Z,14.50
2022-10-09T09:48:32.421Z,14.50
2022-10-09T09:51:23.631Z,14.70
2022-10-09T09:53:56.449Z,14.80
2022-10-09T09:56:59.896Z,14.90
2022-10-09T09:59:41.748Z,15.00
2022-10-09T10:02:14.675Z,15.10
2022-10-09T10:05:23.840Z,15.20
2022-10-09T10:07:51.471Z,15.30
2022-10-09T10:10:25.518Z,15.30
2022-10-09T10:12:53.018Z,15.40
2022-10-09T10:15:20.957Z,15.50
2022-10-09T10:17:49.014Z,15.60
2022-10-09T10:20:17.350Z,15.70
2022-10-09T10:22:52.183Z,15.70
2022-10-09T10:25:21.467Z,15.80
2022-10-09T10:27:51.288Z,15.80
2022-10-09T10:30:19.569Z,15.90
2022-10-09T10:32:56.442Z,15.90
2022-10-09T10:35:35.839Z,16.00
2022-10-09T10:38:26.392Z,16.10
2022-10-09T10:41:03.291Z,16.10
2022-10-09T10:43:49.509Z,16.20
2022-10-09T10:46:25.460Z,16.30
2022-10-09T10:48:52.400Z,16.40
2022-10-09T10:51:53.733Z,16.40
2022-10-09T10:54:34.107Z,16.50
2022-10-09T10:57:15.323Z,16.60
2022-10-09T11:00:00.511Z,16.60
2022-10-09T11:02:53.218Z,16.70
2022-10-09T11:05:47.718Z,16.80
2022-10-09T11:08:32.474Z,16.80
2022-10-09T11:11:18.936Z,16.90
2022-10-09T11:14:16.596Z,17.00
2022-10-09T11:17:00.224Z,17.10
2022-10-09T11:19:45.821Z,17.20
2022-10-09T11:22:31.244Z,17.30
2022-10-09T11:25:14.142Z,17.30
2022-10-09T11:27:50.631Z,17.40
2022-10-09T11:30:18.908Z,17.50
2022-10-09T11:32:45.462Z,17.60
2022-10-09T11:35:12.077Z,17.60
2022-10-09T11:37:41.023Z,17.70
2022-10-09T11:40:16.981Z,17.80
2022-10-09T11:42:47.567Z,17.80
2022-10-09T11:45:29.875Z,17.90
2022-10-09T11:48:11.972Z,18.00
2022-10-09T11:50:57.720Z,18.10
2022-10-09T11:53:26.068Z,18.10
2022-10-09T11:56:06.600Z,18.20
2022-10-09T11:58:33.684Z,18.30
2022-10-09T12:01:21.968Z,18.40
2022-10-09T12:04:00.752Z,18.50
2022-10-09T12:06:28.210Z,18.50
2022-10-09T12:08:58.455Z,18.60
2022-10-09T12:11:25.290Z,18.70
2022-10-09T12:13:54.272Z,18.70
2022-10-09T12:16:44.178Z,18.80
2022-10-09T12:19:35.364Z,18.90
2022-10-09T12:22:14.629Z,19.00
2022-10-09T12:24:46.889Z,19.00
2022-10-09T12:27:34.892Z,19.10
2022-10-09T12:30:14.246Z,19.10
2022-10-09T12:32:47.281Z,19.20
2022-10-09T12:35:25.276Z,19.30
2022-10-09T12:37:52.252Z,19.40
2022-10-09T12:40:27.369Z,19.50
2022-10-09T12:42:55.315Z,19.50
2022-10-09T12:45:25.177Z,19.60
2022-10-09T12:47:52.827Z,19.60
2022-10-09T12:50:24.611Z,19.80
2022-10-09T12:52:57.652Z,19.80
2022-10-09T12:55:40.542Z,19.90
2022-10-09T12:58:14.143Z,20.00
2022-10-09T13:00:41.152Z,20.10
2022-10-09T13:03:23.236Z,20.20
2022-10-09T13:05:50.061Z,20.30
2022-10-09T13:08:34.032Z,20.40
2022-10-09T13:11:24.680Z,20.50
2022-10-09T13:13:52.642Z,20.60
2022-10-09T13:16:19.682Z,20.70
2022-10-09T13:18:57.177Z,20.80
2022-10-09T13:21:35.146Z,20.90
2022-10-09T13:24:08.969Z,21.00
2022-10-09T13:26:35.667Z,21.10
2022-10-09T13:29:03.686Z,21.20
2022-10-09T13:31:30.333Z,21.40
2022-10-09T13:33:56.937Z,21.40
2022-10-09T13:36:23.523Z,21.60
2022-10-09T13:38:50.156Z,21.60
2022-10-09T13:41:21.968Z,21.70
2022-10-09T13:43:49.486Z,21.80
2022-10-09T13:46:16.463Z,22.00
2022-10-09T13:48:43.484Z,22.00
2022-10-09T13:51:11.453Z,22.10
2022-10-09T13:53:38.289Z,22.20
2022-10-09T13:56:05.413Z,22.30
2022-10-09T13:58:32.033Z,22.40
2022-10-09T14:00:59.009Z,22.40
2022-10-09T14:03:25.715Z,22.50
2022-10-09T14:06:01.069Z,22.50
2022-10-09T14:08:27.688Z,22.50
2022-10-09T14:10:54.615Z,22.50
2022-10-09T14:13:21.737Z,22.50
2022-10-09T14:15:48.438Z,22.50
2022-10-09T14:18:15.062Z,22.50
2022-10-09T14:20:41.744Z,22.50
2022-10-09T14:23:09.283Z,22.50
2022-10-09T14:25:35.931Z,22.50
2022-10-09T14:28:03.001Z,22.50
2022-10-09T14:30:29.732Z,22.50
2022-10-09T14:32:56.512Z,22.30
2022-10-09T14:35:23.568Z,22.40
2022-10-09T14:37:50.188Z,22.30
2022-10-09T14:40:17.023Z,22.30
2022-10-09T14:42:43.613Z,22.30
2022-10-09T14:45:10.878Z,22.20
2022-10-09T14:47:37.512Z,22.20
2022-10-09T14:50:04.505Z,22.20
2022-10-09T14:52:31.131Z,22.20
2022-10-09T14:54:57.980Z,22.20
2022-10-09T14:57:24.631Z,22.10
2022-10-09T14:59:51.276Z,22.10
2022-10-09T15:02:18.263Z,22.00
2022-10-09T15:04:45.465Z,22.00
2022-10-09T15:07:12.078Z,22.00
2022-10-09T15:09:38.725Z,22.00
2022-10-09T15:12:05.566Z,22.00
2022-10-09T15:14:32.224Z,22.00
2022-10-09T15:16:58.928Z,22.00
2022-10-09T15:19:25.722Z,22.00
2022-10-09T15:21:52.333Z,22.10
2022-10-09T15:24:18.930Z,22.10
2022-10-09T15:26:45.543Z,22.10
2022-10-09T15:29:12.195Z,22.10
2022-10-09T15:31:40.919Z,22.20
2022-10-09T15:34:08.962Z,22.30
2022-10-09T15:36:37.723Z,22.30
2022-10-09T15:39:07.092Z,22.40
2022-10-09T15:41:36.003Z,22.40
2022-10-09T15:44:05.456Z,22.40
2022-10-09T15:46:32.402Z,22.40
2022-10-09T15:48:59.018Z,22.30
2022-10-09T15:51:25.887Z,22.30
2022-10-09T15:53:52.998Z,22.40
2022-10-09T15:56:22.335Z,22.30
2022-10-09T15:58:49.384Z,22.30
2022-10-09T16:01:17.379Z,22.30
2022-10-09T16:03:44.325Z,22.20
2022-10-09T16:06:14.901Z,22.20
2022-10-09T16:08:42.026Z,22.20
2022-10-09T16:11:11.241Z,22.20
2022-10-09T16:13:40.365Z,22.20
2022-10-09T16:16:10.133Z,22.20
2022-10-09T16:18:37.136Z,22.20
2022-10-09T16:21:15.607Z,22.20
2022-10-09T16:23:43.325Z,22.10
2022-10-09T16:26:11.183Z,22.10
2022-10-09T16:28:38.123Z,22.10
2022-10-09T16:31:05.228Z,22.00
2022-10-09T16:33:32.198Z,21.90
2022-10-09T16:36:12.218Z,21.90
2022-10-09T16:38:39.966Z,21.90
2022-10-09T16:41:12.521Z,21.80
2022-10-09T16:43:39.688Z,21.70
2022-10-09T16:46:15.802Z,21.70
2022-10-09T16:48:42.951Z,21.60
2022-10-09T16:51:15.240Z,21.60
2022-10-09T16:53:42.051Z,21.50
2022-10-09T16:56:11.741Z,21.50
2022-10-09T16:58:39.501Z,21.30
2022-10-09T17:01:09.804Z,21.30
2022-10-09T17:03:40.358Z,21.30
2022-10-09T17:06:12.025Z,21.20
2022-10-09T17:08:39.145Z,21.10
2022-10-09T17:11:09.850Z,21.00
2022-10-09T17:13:36.824Z,21.00
2022-10-09T17:16:07.517Z,20.90
2022-10-09T17:18:35.165Z,20.90
2022-10-09T17:21:03.714Z,20.80
2022-10-09T17:23:30.436Z,20.80
2022-10-09T17:25:57.178Z,20.70
2022-10-09T17:28:24.742Z,20.60
2022-10-09T17:30:51.393Z,20.60
2022-10-09T17:33:19.937Z,20.60
2022-10-09T17:35:47.035Z,20.50
2022-10-09T17:38:13.739Z,20.40
2022-10-09T17:40:41.097Z,20.40
2022-10-09T17:43:08.592Z,20.90
2022-10-09T17:45:42.664Z,20.30
2022-10-09T17:48:10.010Z,20.30
2022-10-09T17:50:36.752Z,20.20
2022-10-09T17:53:04.103Z,20.10
2022-10-09T17:55:31.236Z,20.00
2022-10-09T17:57:57.919Z,20.00
2022-10-09T18:00:24.615Z,19.90
2022-10-09T18:02:51.226Z,19.90
2022-10-09T18:05:17.952Z,19.80
2022-10-09T18:07:44.590Z,19.70
2022-10-09T18:10:11.192Z,19.70
2022-10-09T18:12:37.834Z,19.70
2022-10-09T18:18:49.152Z,19.50
2022-10-09T18:21:17.023Z,20.20
2022-10-09T18:23:47.081Z,19.60
2022-10-09T18:26:16.123Z,21.30
2022-10-09T18:28:46.050Z,19.30
2022-10-09T18:34:05.768Z,19.10
2022-10-09T18:36:34.128Z,19.10
2022-10-09T18:39:09.989Z,19.10
2022-10-09T18:41:37.235Z,19.00
2022-10-09T18:44:05.267Z,19.00
2022-10-09T18:46:39.344Z,18.90
2022-10-09T18:49:10.657Z,18.90
2022-10-09T18:51:38.614Z,18.90
2022-10-09T18:54:06.393Z,18.80
2022-10-09T18:56:34.747Z,18.70
2022-10-09T18:59:11.219Z,18.70
2022-10-09T19:01:48.844Z,18.60
2022-10-09T19:04:22.941Z,18.60
2022-10-09T19:06:49.840Z,18.20
2022-10-09T19:09:16.603Z,18.50
2022-10-09T19:11:43.197Z,19.50
2022-10-09T19:14:09.826Z,20.50
2022-10-09T19:16:36.515Z,18.40
2022-10-09T19:19:03.334Z,18.30
2022-10-09T19:21:29.959Z,18.30
2022-10-09T19:23:56.890Z,18.20
2022-10-09T19:26:24.081Z,18.30
2022-10-09T19:28:50.817Z,18.10
2022-10-09T19:31:18.653Z,18.10
2022-10-09T19:33:45.551Z,18.10
2022-10-09T19:36:13.516Z,18.00
2022-10-09T19:38:40.937Z,18.00
2022-10-09T19:41:10.129Z,17.90
2022-10-09T19:43:37.330Z,17.90
2022-10-09T19:46:05.407Z,17.80
2022-10-09T19:48:32.367Z,17.80
2022-10-09T19:51:00.081Z,17.80
2022-10-09T19:53:26.827Z,17.70
2022-10-09T19:55:53.640Z,17.70
2022-10-09T19:58:20.306Z,17.60
2022-10-09T20:00:47.111Z,17.60
2022-10-09T20:03:14.012Z,17.60
2022-10-09T20:05:40.801Z,17.50
2022-10-09T20:08:07.903Z,17.50
2022-10-09T20:10:38.394Z,17.50
2022-10-09T20:13:05.898Z,17.40
2022-10-09T20:15:35.725Z,17.40
2022-10-09T20:18:02.368Z,17.40
2022-10-09T20:20:29.096Z,17.30
2022-10-09T20:22:55.729Z,17.30
2022-10-09T20:25:22.800Z,17.30
2022-10-09T20:27:49.456Z,17.20
2022-10-09T20:30:16.425Z,17.20
2022-10-09T20:32:43.340Z,17.20
2022-10-09T20:35:10.185Z,17.10
2022-10-09T20:37:36.943Z,17.10
2022-10-09T20:40:04.244Z,17.10
2022-10-09T20:42:31.942Z,17.10
2022-10-09T20:44:58.556Z,17.00
2022-10-09T20:47:25.417Z,17.00
2022-10-09T20:49:57.634Z,17.00
2022-10-09T20:52:24.304Z,16.90
2022-10-09T20:54:51.056Z,16.90
2022-10-09T20:57:17.708Z,16.90
2022-10-09T20:59:44.447Z,16.80
2022-10-09T21:02:14.608Z,16.80
2022-10-09T21:04:41.329Z,16.80
2022-10-09T21:07:08.042Z,16.70
2022-10-09T21:09:34.715Z,16.70
2022-10-09T21:12:02.350Z,16.70
2022-10-09T21:14:28.956Z,16.70
2022-10-09T21:16:55.600Z,16.60
2022-10-09T21:19:22.221Z,16.60
2022-10-09T21:21:51.174Z,16.60
2022-10-09T21:24:18.191Z,16.60
2022-10-09T21:26:47.032Z,16.60
2022-10-09T21:29:14.157Z,16.50
2022-10-09T21:31:40.796Z,16.50
2022-10-09T21:34:07.455Z,16.50
2022-10-09T21:37:15.957Z,16.50
2022-10-09T21:39:33.251Z,16.50
2022-10-09T21:41:59.871Z,16.50
2022-10-09T21:44:27.489Z,16.50
2022-10-09T21:46:54.205Z,16.50
2022-10-09T21:49:27.056Z,16.40
2022-10-09T21:51:53.927Z,16.40
2022-10-09T21:54:20.958Z,16.40
2022-10-09T21:56:48.245Z,16.40
2022-10-09T21:59:14.923Z,16.40
2022-10-09T22:01:41.572Z,16.30
2022-10-09T22:04:08.549Z,16.30
2022-10-09T22:06:35.247Z,16.40
2022-10-09T22:09:01.909Z,16.30
2022-10-09T22:11:28.500Z,16.30
2022-10-09T22:13:55.794Z,16.30
2022-10-09T22:16:22.455Z,16.40
2022-10-09T22:18:49.104Z,16.30
2022-10-09T22:21:16.239Z,16.30
2022-10-09T22:23:43.409Z,16.20
2022-10-09T22:26:16.994Z,16.20
2022-10-09T22:28:44.993Z,16.20
2022-10-09T22:31:21.643Z,16.20
2022-10-09T22:33:56.691Z,16.20
2022-10-09T22:36:24.833Z,16.20
2022-10-09T22:38:56.554Z,16.20
2022-10-09T22:41:24.286Z,16.20
2022-10-09T22:43:53.553Z,16.20
2022-10-09T22:46:27.941Z,16.80
2022-10-09T22:48:55.160Z,16.20
2022-10-09T22:51:23.693Z,16.20
2022-10-09T22:53:50.477Z,16.10
2022-10-09T22:56:19.114Z,16.10
2022-10-09T22:58:46.453Z,16.10
2022-10-09T23:01:38.200Z,16.10
2022-10-09T23:04:07.888Z,16.10
2022-10-09T23:06:35.033Z,16.10
2022-10-09T23:09:05.416Z,16.00
2022-10-09T23:11:32.093Z,16.00
2022-10-09T23:14:01.869Z,16.00
2022-10-09T23:16:30.134Z,15.90
2022-10-09T23:18:58.227Z,15.90
2022-10-09T23:21:25.082Z,15.90
2022-10-09T23:23:52.401Z,15.90
2022-10-09T23:26:30.283Z,15.90
2022-10-09T23:28:59.463Z,15.80
2022-10-09T23:31:27.277Z,15.80
2022-10-09T23:33:54.075Z,15.90
2022-10-09T23:36:22.821Z,15.80
2022-10-09T23:38:49.651Z,15.70
2022-10-09T23:41:18.895Z,15.80
2022-10-09T23:43:46.450Z,15.80
2022-10-09T23:46:16.195Z,15.70
2022-10-09T23:48:43.554Z,15.70
2022-10-09T23:51:10.935Z,15.70
2022-10-09T23:53:37.900Z,15.70
2022-10-09T23:56:16.640Z,15.70
2022-10-09T23:58:43.258Z,15.70
